Montrose Regional Airport
KMTJ : now visible

Airfield :











YOU CAN JOIN US ON...

 
LOGIN :

Register | Disclaimer

   EN    FR    IT 

 









Legend :    VFR   Marginal VFR   IFR   Intensive IFR   Very Intensive IFR
Visi :
Ceiling :
>= 8 km
>= 3000ft
5 to 8 km
1000 to 3000 ft
1500m to 5 km
500 to 1000 ft
800 to 1500m
200 to 500 ft
< 800m
< 200 ft
Symbols :   Thunderstorms  Fog  Heavy snow  Heavy precipitations  Wind > 20 kt







- Airport Elevation : 5759 ft


KMTJ - Montrose Regional

CURRENT METAR :
  • 201953Z AUTO 21020G32KT 10SM CLR 26/M03 A2991 RMK AO2 PK WND 23037/1907 SLP044 T02561028

EXPIRED METARs :
  • 201853Z AUTO 23016G36KT 10SM CLR 25/M03 A2993 RMK AO2 PK WND 21036/1849 SLP052 T02501028
  • 201753Z AUTO 23015G30KT 10SM FEW120 24/M02 A2993 RMK AO2 PK WND 20031/1720 SLP055 T02441017 10244 20117 58003

TAF KMTJ
Valid from the 20 at 18:00 until the 21 at 18:00 UTC


201720Z 2018/2118 22018G30KT P6SM SCT090
FM210100 24012G20KT P6SM FEW090
FM210400 29005KT P6SM FEW150
FM210700 13008KT P6SM FEW150
No reported NOTAMs for that airfield.



MET'MAP, your aeronautical weather chart ! - Copyright ORBIFLY December 2007 - Disclaimer

ORBIFLY MET'MAP TEAM :

Programming & Development : Alexandra Zaïnal
Concept & Development : Baudouin d'Aumeries
Co-Development & Prog : Marc-Olivier Méhu
Technical & hardware support : Manuel Goepfert

Contact : metmap@orbifly.com




SOURCES & CREDITS :

   NOAA       Earth
Advisory